createdAt,value
2023-02-19T00:00:23.957Z,22.10
2023-02-19T00:02:54.459Z,22.10
2023-02-19T00:05:24.658Z,22.20
2023-02-19T00:07:54.237Z,22.10
2023-02-19T00:10:23.902Z,22.10
2023-02-19T00:12:54.199Z,22.10
2023-02-19T00:15:23.843Z,22.10
2023-02-19T00:17:53.562Z,22.10
2023-02-19T00:20:23.147Z,22.10
2023-02-19T00:22:52.897Z,22.10
2023-02-19T00:25:22.632Z,22.10
2023-02-19T00:27:52.292Z,22.10
2023-02-19T00:30:22.053Z,22.10
2023-02-19T00:32:54.912Z,22.10
2023-02-19T00:35:24.790Z,22.10
2023-02-19T00:37:54.379Z,22.10
2023-02-19T00:40:24.545Z,22.10
2023-02-19T00:42:54.808Z,22.10
2023-02-19T00:45:24.684Z,22.10
2023-02-19T00:47:55.217Z,22.10
2023-02-19T00:50:24.860Z,22.20
2023-02-19T00:52:54.589Z,22.20
2023-02-19T00:55:24.269Z,22.20
2023-02-19T00:57:53.832Z,22.20
2023-02-19T01:00:23.503Z,22.30
2023-02-19T01:02:53.190Z,22.30
2023-02-19T01:05:22.731Z,22.30
2023-02-19T01:07:53.025Z,22.40
2023-02-19T01:10:22.777Z,22.40
2023-02-19T01:12:52.407Z,22.40
2023-02-19T01:15:22.315Z,22.50
2023-02-19T01:17:52.082Z,22.60
2023-02-19T01:20:21.785Z,22.60
2023-02-19T01:22:51.479Z,22.70
2023-02-19T01:25:21.475Z,22.70
2023-02-19T01:27:51.135Z,22.80
2023-02-19T01:30:20.936Z,22.90
2023-02-19T01:32:50.627Z,22.90
2023-02-19T01:35:20.314Z,23.00
2023-02-19T01:37:49.911Z,23.10
2023-02-19T01:40:19.812Z,23.20
2023-02-19T01:42:49.491Z,23.20
2023-02-19T01:45:34.149Z,23.30
2023-02-19T01:48:14.294Z,23.40
2023-02-19T01:50:49.434Z,23.40
2023-02-19T01:53:24.494Z,23.50
2023-02-19T01:55:58.344Z,23.60
2023-02-19T01:58:31.147Z,23.70
2023-02-19T02:01:01.792Z,23.70
2023-02-19T02:03:31.921Z,23.80
2023-02-19T02:06:24.907Z,23.90
2023-02-19T02:09:18.314Z,24.00
2023-02-19T02:11:51.695Z,24.10
2023-02-19T02:14:26.345Z,24.10
2023-02-19T02:17:22.837Z,24.30
2023-02-19T02:20:31.661Z,24.40
2023-02-19T02:23:38.917Z,24.50
2023-02-19T02:26:27.877Z,24.60
2023-02-19T02:29:34.497Z,24.70
2023-02-19T02:32:14.222Z,24.80
2023-02-19T02:35:09.573Z,24.90
2023-02-19T02:37:44.321Z,25.10
2023-02-19T02:40:15.983Z,25.20
2023-02-19T02:42:45.903Z,25.30
2023-02-19T02:45:38.361Z,25.40
2023-02-19T02:48:33.532Z,25.50
2023-02-19T02:51:28.612Z,25.60
2023-02-19T02:54:44.992Z,25.70
2023-02-19T02:57:16.553Z,25.80
2023-02-19T02:59:50.746Z,25.90
2023-02-19T03:02:25.877Z,26.00
2023-02-19T03:05:31.489Z,26.10
2023-02-19T03:08:32.077Z,26.20
2023-02-19T03:11:32.113Z,26.40
2023-02-19T03:14:34.403Z,26.40
2023-02-19T03:17:33.847Z,26.60
2023-02-19T03:20:07.921Z,26.70
2023-02-19T03:22:40.072Z,26.80
2023-02-19T03:25:41.379Z,26.90
2023-02-19T03:28:13.579Z,27.00
2023-02-19T03:30:49.277Z,27.10
2023-02-19T03:33:24.522Z,27.20
2023-02-19T03:36:00.115Z,27.20
2023-02-19T03:38:41.582Z,27.30
2023-02-19T03:41:50.416Z,27.40
2023-02-19T03:44:46.518Z,27.50
2023-02-19T03:47:33.283Z,27.70
2023-02-19T03:50:25.871Z,27.80
2023-02-19T03:53:34.632Z,27.80
2023-02-19T03:56:16.108Z,28.00
2023-02-19T03:59:00.633Z,28.00
2023-02-19T04:01:41.398Z,28.10
2023-02-19T04:04:44.896Z,28.30
2023-02-19T04:07:15.282Z,28.40
2023-02-19T04:09:49.069Z,28.50
2023-02-19T04:12:21.100Z,28.50
2023-02-19T04:15:06.038Z,28.60
2023-02-19T04:18:00.487Z,28.70
2023-02-19T04:20:33.382Z,28.80
2023-02-19T04:23:03.146Z,28.90
2023-02-19T04:25:34.969Z,28.90
2023-02-19T04:28:05.264Z,29.00
2023-02-19T04:30:35.097Z,29.10
2023-02-19T04:33:04.877Z,29.10
2023-02-19T04:35:36.093Z,29.20
2023-02-19T04:38:05.793Z,29.30
2023-02-19T04:40:35.490Z,29.40
2023-02-19T04:43:05.290Z,29.40
2023-02-19T04:45:34.962Z,29.50
2023-02-19T04:48:04.772Z,29.50
2023-02-19T04:50:34.624Z,29.50
2023-02-19T04:53:04.213Z,29.50
2023-02-19T04:55:33.834Z,29.50
2023-02-19T04:58:03.632Z,29.50
2023-02-19T05:00:35.570Z,29.60
2023-02-19T05:03:05.202Z,29.70
2023-02-19T05:05:34.886Z,29.80
2023-02-19T05:08:04.502Z,29.90
2023-02-19T05:10:35.463Z,30.00
2023-02-19T05:13:05.766Z,30.20
2023-02-19T05:15:35.376Z,30.40
2023-02-19T05:18:05.626Z,30.50
2023-02-19T05:20:35.456Z,30.60
2023-02-19T05:23:05.085Z,30.70
2023-02-19T05:25:34.782Z,30.80
2023-02-19T05:28:19.317Z,30.80
2023-02-19T05:30:51.495Z,30.90
2023-02-19T05:33:22.932Z,30.90
2023-02-19T05:35:55.727Z,30.90
2023-02-19T05:38:26.381Z,31.00
2023-02-19T05:40:56.020Z,31.00
2023-02-19T05:43:25.740Z,31.00
2023-02-19T05:45:55.332Z,31.00
2023-02-19T05:48:24.880Z,31.10
2023-02-19T05:50:54.550Z,31.10
2023-02-19T05:53:24.133Z,31.20
2023-02-19T05:55:53.712Z,31.30
2023-02-19T05:58:23.508Z,31.50
2023-02-19T06:00:53.813Z,31.50
2023-02-19T06:03:24.219Z,31.60
2023-02-19T06:05:53.907Z,31.50
2023-02-19T06:08:23.544Z,31.50
2023-02-19T06:10:53.146Z,31.50
2023-02-19T06:13:23.474Z,31.70
2023-02-19T06:15:53.046Z,31.80
2023-02-19T06:18:22.661Z,31.90
2023-02-19T06:20:52.613Z,31.90
2023-02-19T06:23:22.142Z,31.90
2023-02-19T06:25:51.652Z,31.90
2023-02-19T06:28:21.338Z,31.80
2023-02-19T06:30:51.572Z,31.80
2023-02-19T06:33:21.261Z,31.90
2023-02-19T06:35:50.940Z,31.90
2023-02-19T06:38:20.554Z,32.00
2023-02-19T06:40:50.205Z,32.10
2023-02-19T06:43:19.880Z,32.10
2023-02-19T06:45:49.472Z,32.10
2023-02-19T06:48:19.114Z,32.20
2023-02-19T06:50:48.753Z,32.20
2023-02-19T06:53:18.409Z,32.20
2023-02-19T06:55:57.280Z,32.20
2023-02-19T06:58:26.871Z,32.20
2023-02-19T07:00:56.879Z,32.20
2023-02-19T07:03:28.072Z,32.30
2023-02-19T07:05:57.696Z,32.40
2023-02-19T07:08:29.319Z,32.40
2023-02-19T07:11:02.255Z,32.40
2023-02-19T07:13:32.472Z,32.40
2023-02-19T07:16:04.554Z,32.20
2023-02-19T07:18:34.557Z,32.10
2023-02-19T07:21:12.031Z,32.00
2023-02-19T07:23:42.843Z,31.80
2023-02-19T07:26:20.695Z,31.80
2023-02-19T07:28:50.988Z,31.80
2023-02-19T07:31:23.259Z,31.90
2023-02-19T07:33:53.505Z,32.00
2023-02-19T07:36:25.234Z,32.10
2023-02-19T07:39:02.051Z,32.20
2023-02-19T07:41:31.700Z,32.30
2023-02-19T07:44:01.388Z,32.40
2023-02-19T07:46:32.371Z,32.40
2023-02-19T07:49:02.752Z,32.30
2023-02-19T07:51:32.417Z,32.30
2023-02-19T07:54:02.212Z,32.30
2023-02-19T07:56:32.059Z,32.40
2023-02-19T07:59:03.020Z,32.40
2023-02-19T08:01:52.334Z,32.50
2023-02-19T08:04:22.007Z,32.40
2023-02-19T08:06:51.852Z,32.10
2023-02-19T08:09:21.503Z,32.00
2023-02-19T08:12:10.840Z,31.90
2023-02-19T08:14:41.047Z,31.90
2023-02-19T08:17:10.689Z,32.00
2023-02-19T08:19:40.486Z,32.00
2023-02-19T08:22:10.372Z,31.90
2023-02-19T08:24:44.511Z,31.80
2023-02-19T08:27:14.106Z,31.80
2023-02-19T08:29:43.747Z,31.90
2023-02-19T08:32:13.538Z,32.00
2023-02-19T08:34:43.119Z,32.00
2023-02-19T08:37:12.717Z,32.10
2023-02-19T08:39:42.386Z,32.10
2023-02-19T08:42:12.070Z,32.00
2023-02-19T08:44:41.709Z,32.00
2023-02-19T08:47:11.380Z,31.90
2023-02-19T08:49:40.963Z,31.90
2023-02-19T08:52:10.721Z,32.00
2023-02-19T08:54:40.443Z,32.00
2023-02-19T08:57:10.011Z,32.10
2023-02-19T08:59:39.682Z,32.20
2023-02-19T09:02:10.991Z,32.20
2023-02-19T09:04:40.970Z,32.30
2023-02-19T09:07:12.780Z,32.30
2023-02-19T09:09:42.930Z,32.30
2023-02-19T09:12:14.415Z,32.40
2023-02-19T09:14:44.741Z,32.40
2023-02-19T09:17:14.627Z,32.40
2023-02-19T09:19:44.396Z,32.40
2023-02-19T09:22:14.385Z,32.30
2023-02-19T09:24:45.578Z,32.20
2023-02-19T09:27:20.198Z,32.20
2023-02-19T09:29:49.981Z,32.20
2023-02-19T09:32:19.684Z,32.20
2023-02-19T09:34:49.376Z,32.20
2023-02-19T09:37:18.997Z,32.10
2023-02-19T09:39:48.744Z,32.10
2023-02-19T09:42:22.545Z,32.00
2023-02-19T09:44:54.995Z,31.90
2023-02-19T09:47:30.588Z,31.90
2023-02-19T09:50:07.279Z,31.80
2023-02-19T09:52:47.337Z,31.70
2023-02-19T09:55:38.625Z,31.60
2023-02-19T09:58:31.791Z,31.50
2023-02-19T10:01:04.834Z,31.50
2023-02-19T10:03:45.007Z,31.50
2023-02-19T10:06:29.031Z,31.40
2023-02-19T10:09:28.815Z,31.40
2023-02-19T10:12:00.675Z,31.40
2023-02-19T10:14:41.991Z,31.40
2023-02-19T10:17:25.231Z,31.30
2023-02-19T10:19:55.886Z,31.20
2023-02-19T10:22:26.438Z,31.10
2023-02-19T10:24:58.202Z,31.10
2023-02-19T10:27:35.510Z,31.00
2023-02-19T10:30:05.402Z,31.00
2023-02-19T10:32:35.170Z,31.00
2023-02-19T10:35:24.358Z,30.90
2023-02-19T10:37:55.037Z,30.90
2023-02-19T10:40:28.474Z,30.80
2023-02-19T10:43:07.102Z,30.80
2023-02-19T10:45:55.005Z,30.70
2023-02-19T10:48:32.594Z,30.60
2023-02-19T10:51:08.324Z,30.60
2023-02-19T10:53:49.811Z,30.50
2023-02-19T10:56:35.417Z,30.50
2023-02-19T10:59:26.437Z,30.40
2023-02-19T11:02:17.113Z,30.30
2023-02-19T11:05:18.145Z,30.30
2023-02-19T11:07:58.485Z,30.20
2023-02-19T11:10:33.005Z,30.20
2023-02-19T11:13:05.466Z,30.10
2023-02-19T11:15:37.468Z,30.00
2023-02-19T11:18:26.720Z,30.00
2023-02-19T11:21:00.154Z,29.90
2023-02-19T11:23:40.763Z,29.80
2023-02-19T11:26:23.558Z,29.80
2023-02-19T11:29:04.256Z,29.70
2023-02-19T11:31:37.790Z,29.60
2023-02-19T11:34:37.003Z,29.60
2023-02-19T11:37:16.755Z,29.50
2023-02-19T11:39:50.372Z,29.40
2023-02-19T11:42:44.966Z,29.30
2023-02-19T11:45:42.556Z,29.20
2023-02-19T11:48:31.255Z,29.20
2023-02-19T11:51:39.922Z,29.10
2023-02-19T11:54:50.952Z,29.00
2023-02-19T11:57:42.690Z,28.90
2023-02-19T12:00:32.693Z,28.90
2023-02-19T12:03:36.659Z,28.80
2023-02-19T12:06:39.786Z,28.70
2023-02-19T12:09:35.374Z,28.60
2023-02-19T12:12:32.889Z,28.50
2023-02-19T12:15:37.357Z,28.50
2023-02-19T12:18:43.089Z,28.40
2023-02-19T12:21:48.873Z,28.30
2023-02-19T12:24:48.914Z,28.20
2023-02-19T12:27:56.957Z,28.10
2023-02-19T12:30:54.348Z,28.00
2023-02-19T12:33:58.777Z,27.90
2023-02-19T12:36:53.146Z,27.80
2023-02-19T12:39:50.313Z,27.70
2023-02-19T12:42:51.187Z,27.70
2023-02-19T12:46:00.592Z,27.60
2023-02-19T12:49:09.122Z,27.50
2023-02-19T12:51:52.186Z,27.40
2023-02-19T12:54:40.376Z,27.40
2023-02-19T12:57:27.119Z,27.30
2023-02-19T13:00:09.111Z,27.30
2023-02-19T13:02:55.887Z,27.20
2023-02-19T13:06:05.299Z,27.10
2023-02-19T13:09:07.481Z,27.00
2023-02-19T13:12:01.021Z,27.00
2023-02-19T13:14:45.709Z,26.90
2023-02-19T13:17:34.188Z,26.90
2023-02-19T13:20:43.581Z,26.80
2023-02-19T13:23:50.170Z,26.80
2023-02-19T13:26:59.137Z,26.70
2023-02-19T13:29:58.549Z,26.70
2023-02-19T13:33:00.319Z,26.60
2023-02-19T13:36:09.959Z,26.50
2023-02-19T13:38:46.091Z,26.50
2023-02-19T13:41:29.691Z,26.40
2023-02-19T13:44:06.463Z,26.30
2023-02-19T13:46:42.661Z,26.30
2023-02-19T13:49:43.628Z,26.20
2023-02-19T13:52:37.836Z,26.20
2023-02-19T13:55:52.725Z,26.10
2023-02-19T13:58:42.141Z,26.10
2023-02-19T14:01:13.255Z,26.00
2023-02-19T14:03:56.878Z,26.00
2023-02-19T14:06:28.529Z,25.90
2023-02-19T14:09:05.523Z,25.90
2023-02-19T14:12:04.603Z,25.80
2023-02-19T14:14:41.003Z,25.80
2023-02-19T14:17:39.316Z,25.70
2023-02-19T14:20:48.275Z,25.70
2023-02-19T14:23:25.834Z,25.60
2023-02-19T14:26:01.887Z,25.60
2023-02-19T14:28:46.480Z,25.40
2023-02-19T14:31:40.420Z,25.30
2023-02-19T14:34:28.704Z,25.30
2023-02-19T14:37:02.050Z,25.10
2023-02-19T14:39:39.527Z,25.10
2023-02-19T14:42:19.552Z,25.00
2023-02-19T14:44:54.102Z,25.10
2023-02-19T14:47:27.357Z,25.10
2023-02-19T14:50:04.711Z,25.10
2023-02-19T14:52:48.356Z,25.10
2023-02-19T14:55:31.394Z,25.10
2023-02-19T14:58:06.762Z,25.30
2023-02-19T15:00:40.943Z,25.20
2023-02-19T15:03:28.496Z,25.30
2023-02-19T15:06:14.932Z,25.30
2023-02-19T15:08:54.842Z,25.30
2023-02-19T15:11:26.529Z,25.30
2023-02-19T15:14:02.632Z,25.30
2023-02-19T15:16:34.800Z,25.30
2023-02-19T15:19:09.948Z,25.30
2023-02-19T15:21:45.496Z,25.30
2023-02-19T15:24:17.829Z,25.30
2023-02-19T15:26:52.798Z,25.30
2023-02-19T15:29:27.181Z,25.30
2023-02-19T15:32:00.079Z,25.40
2023-02-19T15:34:31.837Z,25.40
2023-02-19T15:37:05.656Z,25.40
2023-02-19T15:39:48.869Z,25.40
2023-02-19T15:42:23.479Z,25.40
2023-02-19T15:45:08.313Z,25.40
2023-02-19T15:47:50.862Z,25.40
2023-02-19T15:50:27.897Z,25.40
2023-02-19T15:53:31.296Z,25.40
2023-02-19T15:56:14.369Z,25.40
2023-02-19T15:59:14.602Z,25.40
2023-02-19T16:01:44.594Z,25.40
2023-02-19T16:04:19.993Z,25.40
2023-02-19T16:06:57.871Z,25.50
2023-02-19T16:09:40.347Z,25.40
2023-02-19T16:12:29.970Z,25.40
2023-02-19T16:14:59.599Z,25.30
2023-02-19T16:17:29.993Z,25.30
2023-02-19T16:20:04.305Z,25.30
2023-02-19T16:22:43.829Z,25.30
2023-02-19T16:25:26.839Z,25.20
2023-02-19T16:27:57.101Z,25.10
2023-02-19T16:30:33.073Z,25.10
2023-02-19T16:33:23.308Z,25.10
2023-02-19T16:35:54.081Z,25.10
2023-02-19T16:38:24.197Z,25.10
2023-02-19T16:41:10.940Z,25.10
2023-02-19T16:43:44.941Z,25.10
2023-02-19T16:46:15.498Z,25.10
2023-02-19T16:48:45.222Z,25.10
2023-02-19T16:51:25.918Z,25.10
2023-02-19T16:53:55.710Z,25.10
2023-02-19T16:56:25.515Z,25.10
2023-02-19T16:58:55.226Z,25.10
2023-02-19T17:01:25.360Z,25.10
2023-02-19T17:04:00.552Z,25.00
2023-02-19T17:06:30.488Z,25.00
2023-02-19T17:09:00.683Z,25.00
2023-02-19T17:11:30.317Z,25.00
2023-02-19T17:14:00.040Z,25.00
2023-02-19T17:16:41.814Z,24.90
2023-02-19T17:19:22.096Z,24.90
2023-02-19T17:21:51.858Z,24.90
2023-02-19T17:24:22.268Z,24.90
2023-02-19T17:26:52.043Z,24.90
2023-02-19T17:29:21.845Z,24.90
2023-02-19T17:31:51.734Z,24.80
2023-02-19T17:34:21.443Z,24.80
2023-02-19T17:36:51.187Z,24.80
2023-02-19T17:39:21.087Z,24.80
2023-02-19T17:41:51.559Z,24.70
2023-02-19T17:44:21.171Z,24.70
2023-02-19T17:46:51.160Z,24.60
2023-02-19T17:49:21.410Z,24.60
2023-02-19T17:51:51.062Z,24.50
2023-02-19T17:54:20.613Z,24.50
2023-02-19T17:56:50.281Z,24.50
2023-02-19T18:01:36.940Z,24.40
2023-02-19T18:06:26.331Z,24.30
2023-02-19T18:08:56.246Z,24.30
2023-02-19T18:11:25.926Z,24.40
2023-02-19T18:13:55.682Z,24.30
2023-02-19T18:18:47.044Z,24.20
2023-02-19T19:05:33.060Z,23.70
2023-02-19T19:08:03.476Z,23.70
2023-02-19T19:10:33.430Z,23.70
